aviador You're here:

LYTV Decoded Metar

TIVAT in SERBIA
Report Time2018-02-22 08:30:00
UTC Time2018-02-22 08:47:59
Flight Rules vfr VFR
Wind140° at 05 kt
W.Decomp.*RWY 14: 5.0 kt HW 0.2 kt LCW
W.Rank140° ranks 6
Current wind is above 140° avg. (4.6)
Visibility9999 m
Phenomena:Recent Rain
Clouds:Few 030 Hf
Scattered 043 Hf
CeilingNone
Temp10°C (ISA -5)
Dew Point10°C (100% RH)
AAT8.2°C
QNH1007 hPa
Density Alt-210 ft
Elevation16 ft
Report Wrong Elevation
Raw Report
LYTV 220830Z 14005KT 090V170 9999 FEW030 SCT043 10/10 Q1007 RERA
NOSIG=

Extra information for LYTV:More info

Metar Taf Metar & Taf Last 4 Metars F.Rules Stats Wind Profile Meteogram Temp Stats Airport Information Weather charts Add Link Nearby VenuesMetar ALERT Operation Metar Decoded Social comments